Time;durP1;ratioP1;P1;durP2;ratioP2;P2;SDS_P1;SDS_P2;PMS_P1;PMS_P2;Temp;Humidity;BMP_temperature;BMP_pressure;BME280_temperature;BME280_humidity;BME280_pressure;Samples;Min_cycle;Max_cycle;Signal;HPM_P1;HPM_P2
2022/05/15 00:03:26;;;;;;;7.15;6.050001;;;;;;;11.15;63.8291;95582.9;;;;
2022/05/15 00:04:27;;;;;;;7.15;6.050001;;;;;;;11.15;63.8291;95582.9;;;;
2022/05/15 00:05:28;;;;;;;7.15;6.050001;;;;;;;11.15;63.8291;95582.9;;;;
2022/05/15 00:06:28;;;;;;;7.15;6.050001;;;;;;;11.15;63.8291;95582.9;;;;
2022/05/15 00:07:29;;;;;;;7.15;6.050001;;;;;;;11.15;63.8291;95582.9;;;;
2022/05/15 00:08:29;;;;;;;7.15;6.050001;;;;;;;11.15;63.8291;95582.9;;;;
2022/05/15 00:09:33;;;;;;;7.15;6.050001;;;;;;;11.15;63.8291;95582.9;;;;
2022/05/15 00:10:33;;;;;;;7.15;6.050001;;;;;;;11.15;63.8291;95582.9;;;;
2022/05/15 00:11:34;;;;;;;7.15;6.050001;;;;;;;11.15;63.8291;95582.9;;;;
2022/05/15 00:12:35;;;;;;;7.15;6.050001;;;;;;;11.15;63.8291;95582.9;;;;
2022/05/15 00:13:35;;;;;;;6.8;5.25;;;;;;;10.86;64.49902;95571.06;;;;
2022/05/15 00:14:37;;;;;;;6.8;5.25;;;;;;;10.86;64.49902;95571.06;;;;
2022/05/15 00:15:38;;;;;;;6.8;5.25;;;;;;;10.86;64.49902;95571.06;;;;
2022/05/15 00:16:40;;;;;;;6.8;5.25;;;;;;;10.86;64.49902;95571.06;;;;
2022/05/15 00:17:41;;;;;;;6.8;5.25;;;;;;;10.86;64.49902;95571.06;;;;
2022/05/15 00:18:43;;;;;;;6.8;5.25;;;;;;;10.86;64.49902;95571.06;;;;
2022/05/15 00:19:43;;;;;;;6.8;5.25;;;;;;;10.86;64.49902;95571.06;;;;
2022/05/15 00:20:44;;;;;;;6.8;5.25;;;;;;;10.86;64.49902;95571.06;;;;
2022/05/15 00:21:45;;;;;;;6.8;5.25;;;;;;;10.86;64.49902;95571.06;;;;
2022/05/15 00:22:45;;;;;;;6.8;5.25;;;;;;;10.86;64.49902;95571.06;;;;
2022/05/15 00:23:46;;;;;;;5.849999;5.25;;;;;;;10.69;64.80762;95568.97;;;;
2022/05/15 00:24:46;;;;;;;5.849999;5.25;;;;;;;10.69;64.80762;95568.97;;;;
2022/05/15 00:25:47;;;;;;;5.849999;5.25;;;;;;;10.69;64.80762;95568.97;;;;
2022/05/15 00:26:48;;;;;;;5.849999;5.25;;;;;;;10.69;64.80762;95568.97;;;;
2022/05/15 00:27:48;;;;;;;5.849999;5.25;;;;;;;10.69;64.80762;95568.97;;;;
2022/05/15 00:28:49;;;;;;;5.849999;5.25;;;;;;;10.69;64.80762;95568.97;;;;
2022/05/15 00:29:49;;;;;;;5.849999;5.25;;;;;;;10.69;64.80762;95568.97;;;;
2022/05/15 00:30:50;;;;;;;5.849999;5.25;;;;;;;10.69;64.80762;95568.97;;;;
2022/05/15 00:31:51;;;;;;;5.849999;5.25;;;;;;;10.69;64.80762;95568.97;;;;
2022/05/15 00:32:52;;;;;;;5.849999;5.25;;;;;;;10.69;64.80762;95568.97;;;;
2022/05/15 00:33:53;;;;;;;5.849999;5.25;;;;;;;10.69;64.80762;95568.97;;;;
2022/05/15 00:34:54;;;;;;;6.7;5.199999;;;;;;;10.61;65.04297;95567.04;;;;
2022/05/15 00:35:54;;;;;;;6.7;5.199999;;;;;;;10.61;65.04297;95567.04;;;;
2022/05/15 00:36:55;;;;;;;6.7;5.199999;;;;;;;10.61;65.04297;95567.04;;;;
2022/05/15 00:37:55;;;;;;;6.7;5.199999;;;;;;;10.61;65.04297;95567.04;;;;
2022/05/15 00:38:58;;;;;;;6.7;5.199999;;;;;;;10.61;65.04297;95567.04;;;;
2022/05/15 00:39:58;;;;;;;6.7;5.199999;;;;;;;10.61;65.04297;95567.04;;;;
2022/05/15 00:40:59;;;;;;;6.7;5.199999;;;;;;;10.61;65.04297;95567.04;;;;
2022/05/15 00:41:59;;;;;;;6.7;5.199999;;;;;;;10.61;65.04297;95567.04;;;;
2022/05/15 00:43:00;;;;;;;6.7;5.199999;;;;;;;10.61;65.04297;95567.04;;;;
2022/05/15 00:44:01;;;;;;;6.7;5.199999;;;;;;;10.61;65.04297;95567.04;;;;
2022/05/15 00:45:02;;;;;;;6.199999;5.25;;;;;;;10.44;65.28809;95558.29;;;;
2022/05/15 00:46:04;;;;;;;6.199999;5.25;;;;;;;10.44;65.28809;95558.29;;;;
2022/05/15 00:47:07;;;;;;;6.199999;5.25;;;;;;;10.44;65.28809;95558.29;;;;
2022/05/15 00:48:08;;;;;;;6.199999;5.25;;;;;;;10.44;65.28809;95558.29;;;;
2022/05/15 00:49:08;;;;;;;6.199999;5.25;;;;;;;10.44;65.28809;95558.29;;;;
2022/05/15 00:50:12;;;;;;;6.199999;5.25;;;;;;;10.44;65.28809;95558.29;;;;
2022/05/15 00:51:16;;;;;;;6.199999;5.25;;;;;;;10.44;65.28809;95558.29;;;;
2022/05/15 00:52:21;;;;;;;6.199999;5.25;;;;;;;10.44;65.28809;95558.29;;;;
2022/05/15 00:53:27;;;;;;;6.199999;5.25;;;;;;;10.44;65.28809;95558.29;;;;
2022/05/15 00:54:28;;;;;;;6.199999;5.25;;;;;;;10.44;65.28809;95558.29;;;;
2022/05/15 00:55:32;;;;;;;6.199999;5.25;;;;;;;10.44;65.28809;95558.29;;;;
2022/05/15 00:56:39;;;;;;;7.7;5.05;;;;;;;10.34;65.54395;95560.94;;;;
2022/05/15 00:57:47;;;;;;;7.7;5.05;;;;;;;10.34;65.54395;95560.94;;;;
2022/05/15 00:58:52;;;;;;;7.7;5.05;;;;;;;10.34;65.54395;95560.94;;;;
2022/05/15 00:59:59;;;;;;;7.7;5.05;;;;;;;10.34;65.54395;95560.94;;;;
2022/05/15 01:01:03;;;;;;;7.7;5.05;;;;;;;10.34;65.54395;95560.94;;;;
2022/05/15 01:02:05;;;;;;;7.7;5.05;;;;;;;10.34;65.54395;95560.94;;;;
2022/05/15 01:03:08;;;;;;;7.7;5.05;;;;;;;10.34;65.54395;95560.94;;;;
2022/05/15 01:04:11;;;;;;;7.7;5.05;;;;;;;10.34;65.54395;95560.94;;;;
2022/05/15 01:05:12;;;;;;;7.7;5.05;;;;;;;10.34;65.54395;95560.94;;;;
2022/05/15 01:06:15;;;;;;;7.7;5.05;;;;;;;10.34;65.54395;95560.94;;;;
2022/05/15 01:07:15;;;;;;;8.15;5.15;;;;;;;10.16;65.78613;95556.8;;;;
2022/05/15 01:08:16;;;;;;;8.15;5.15;;;;;;;10.16;65.78613;95556.8;;;;
2022/05/15 01:09:18;;;;;;;8.15;5.15;;;;;;;10.16;65.78613;95556.8;;;;
2022/05/15 01:10:19;;;;;;;8.15;5.15;;;;;;;10.16;65.78613;95556.8;;;;
2022/05/15 01:11:20;;;;;;;8.15;5.15;;;;;;;10.16;65.78613;95556.8;;;;
2022/05/15 01:12:21;;;;;;;8.15;5.15;;;;;;;10.16;65.78613;95556.8;;;;
2022/05/15 01:13:21;;;;;;;8.15;5.15;;;;;;;10.16;65.78613;95556.8;;;;
2022/05/15 01:14:24;;;;;;;8.15;5.15;;;;;;;10.16;65.78613;95556.8;;;;
2022/05/15 01:15:25;;;;;;;8.15;5.15;;;;;;;10.16;65.78613;95556.8;;;;
2022/05/15 01:16:28;;;;;;;8.15;5.15;;;;;;;10.16;65.78613;95556.8;;;;
2022/05/15 01:17:28;;;;;;;8.300001;5.25;;;;;;;10.08;66.03223;95560.13;;;;
2022/05/15 01:18:32;;;;;;;8.300001;5.25;;;;;;;10.08;66.03223;95560.13;;;;
2022/05/15 01:19:35;;;;;;;8.300001;5.25;;;;;;;10.08;66.03223;95560.13;;;;
2022/05/15 01:20:37;;;;;;;8.300001;5.25;;;;;;;10.08;66.03223;95560.13;;;;
2022/05/15 01:21:40;;;;;;;8.300001;5.25;;;;;;;10.08;66.03223;95560.13;;;;
2022/05/15 01:22:52;;;;;;;8.300001;5.25;;;;;;;10.08;66.03223;95560.13;;;;
2022/05/15 01:23:53;;;;;;;8.300001;5.25;;;;;;;10.08;66.03223;95560.13;;;;
2022/05/15 01:24:54;;;;;;;8.300001;5.25;;;;;;;10.08;66.03223;95560.13;;;;
2022/05/15 01:25:56;;;;;;;8.300001;5.25;;;;;;;10.08;66.03223;95560.13;;;;
2022/05/15 01:26:57;;;;;;;8.300001;5.25;;;;;;;10.08;66.03223;95560.13;;;;
2022/05/15 01:28:01;;;;;;;6;5.050001;;;;;;;9.93;66.23535;95560.71;;;;
2022/05/15 01:29:06;;;;;;;6;5.050001;;;;;;;9.93;66.23535;95560.71;;;;
2022/05/15 01:30:07;;;;;;;6;5.050001;;;;;;;9.93;66.23535;95560.71;;;;
2022/05/15 01:31:09;;;;;;;6;5.050001;;;;;;;9.93;66.23535;95560.71;;;;
2022/05/15 01:32:09;;;;;;;6;5.050001;;;;;;;9.93;66.23535;95560.71;;;;
2022/05/15 01:33:11;;;;;;;6;5.050001;;;;;;;9.93;66.23535;95560.71;;;;
2022/05/15 01:34:12;;;;;;;6;5.050001;;;;;;;9.93;66.23535;95560.71;;;;
2022/05/15 01:35:12;;;;;;;6;5.050001;;;;;;;9.93;66.23535;95560.71;;;;
2022/05/15 01:36:13;;;;;;;6;5.050001;;;;;;;9.93;66.23535;95560.71;;;;
2022/05/15 01:37:15;;;;;;;6;5.050001;;;;;;;9.93;66.23535;95560.71;;;;
2022/05/15 01:38:18;;;;;;;6;5.050001;;;;;;;9.93;66.23535;95560.71;;;;
2022/05/15 01:39:19;;;;;;;7.6;4.9;;;;;;;9.86;66.42871;95555.08;;;;
2022/05/15 01:40:19;;;;;;;7.6;4.9;;;;;;;9.86;66.42871;95555.08;;;;
2022/05/15 01:41:20;;;;;;;7.6;4.9;;;;;;;9.86;66.42871;95555.08;;;;
2022/05/15 01:42:22;;;;;;;7.6;4.9;;;;;;;9.86;66.42871;95555.08;;;;
2022/05/15 01:43:23;;;;;;;7.6;4.9;;;;;;;9.86;66.42871;95555.08;;;;
2022/05/15 01:44:23;;;;;;;7.6;4.9;;;;;;;9.86;66.42871;95555.08;;;;
2022/05/15 01:45:24;;;;;;;7.6;4.9;;;;;;;9.86;66.42871;95555.08;;;;
2022/05/15 01:46:25;;;;;;;7.6;4.9;;;;;;;9.86;66.42871;95555.08;;;;
2022/05/15 01:47:28;;;;;;;7.6;4.9;;;;;;;9.86;66.42871;95555.08;;;;
2022/05/15 01:48:29;;;;;;;7.6;4.9;;;;;;;9.86;66.42871;95555.08;;;;
2022/05/15 01:49:30;;;;;;;6;4.950001;;;;;;;9.71;66.64355;95554.35;;;;
2022/05/15 01:50:31;;;;;;;6;4.950001;;;;;;;9.71;66.64355;95554.35;;;;
2022/05/15 01:51:32;;;;;;;6;4.950001;;;;;;;9.71;66.64355;95554.35;;;;
2022/05/15 01:52:34;;;;;;;6;4.950001;;;;;;;9.71;66.64355;95554.35;;;;
2022/05/15 01:53:35;;;;;;;6;4.950001;;;;;;;9.71;66.64355;95554.35;;;;
2022/05/15 01:54:36;;;;;;;6;4.950001;;;;;;;9.71;66.64355;95554.35;;;;
2022/05/15 01:55:36;;;;;;;6;4.950001;;;;;;;9.71;66.64355;95554.35;;;;
2022/05/15 01:56:37;;;;;;;6;4.950001;;;;;;;9.71;66.64355;95554.35;;;;
2022/05/15 01:57:38;;;;;;;6;4.950001;;;;;;;9.71;66.64355;95554.35;;;;
2022/05/15 01:58:39;;;;;;;6;4.950001;;;;;;;9.71;66.64355;95554.35;;;;
2022/05/15 01:59:39;;;;;;;6;4.950001;;;;;;;9.71;66.64355;95554.35;;;;
2022/05/15 02:00:40;;;;;;;6.599999;5;;;;;;;9.63;66.84668;95546.73;;;;
2022/05/15 02:01:41;;;;;;;6.599999;5;;;;;;;9.63;66.84668;95546.73;;;;
2022/05/15 02:02:41;;;;;;;6.599999;5;;;;;;;9.63;66.84668;95546.73;;;;
2022/05/15 02:03:42;;;;;;;6.599999;5;;;;;;;9.63;66.84668;95546.73;;;;
2022/05/15 02:04:43;;;;;;;6.599999;5;;;;;;;9.63;66.84668;95546.73;;;;
2022/05/15 02:05:43;;;;;;;6.599999;5;;;;;;;9.63;66.84668;95546.73;;;;
2022/05/15 02:06:44;;;;;;;6.599999;5;;;;;;;9.63;66.84668;95546.73;;;;
2022/05/15 02:07:44;;;;;;;6.599999;5;;;;;;;9.63;66.84668;95546.73;;;;
2022/05/15 02:08:46;;;;;;;6.599999;5;;;;;;;9.63;66.84668;95546.73;;;;
2022/05/15 02:09:46;;;;;;;6.599999;5;;;;;;;9.63;66.84668;95546.73;;;;
2022/05/15 02:10:47;;;;;;;7.400001;4.75;;;;;;;9.45;67.09668;95550.42;;;;
2022/05/15 02:11:48;;;;;;;7.400001;4.75;;;;;;;9.45;67.09668;95550.42;;;;
2022/05/15 02:12:48;;;;;;;7.400001;4.75;;;;;;;9.45;67.09668;95550.42;;;;
2022/05/15 02:13:48;;;;;;;7.400001;4.75;;;;;;;9.45;67.09668;95550.42;;;;
2022/05/15 02:14:49;;;;;;;7.400001;4.75;;;;;;;9.45;67.09668;95550.42;;;;
2022/05/15 02:15:49;;;;;;;7.400001;4.75;;;;;;;9.45;67.09668;95550.42;;;;
2022/05/15 02:16:50;;;;;;;7.400001;4.75;;;;;;;9.45;67.09668;95550.42;;;;
2022/05/15 02:17:52;;;;;;;7.400001;4.75;;;;;;;9.45;67.09668;95550.42;;;;
2022/05/15 02:18:53;;;;;;;7.400001;4.75;;;;;;;9.45;67.09668;95550.42;;;;
2022/05/15 02:19:53;;;;;;;7.400001;4.75;;;;;;;9.45;67.09668;95550.42;;;;
2022/05/15 02:20:54;;;;;;;7.400001;4.75;;;;;;;9.45;67.09668;95550.42;;;;
2022/05/15 02:21:54;;;;;;;5.849999;5.349999;;;;;;;9.35;67.37109;95543.39;;;;
2022/05/15 02:22:55;;;;;;;5.849999;5.349999;;;;;;;9.35;67.37109;95543.39;;;;
2022/05/15 02:23:57;;;;;;;5.849999;5.349999;;;;;;;9.35;67.37109;95543.39;;;;
2022/05/15 02:24:57;;;;;;;5.849999;5.349999;;;;;;;9.35;67.37109;95543.39;;;;
2022/05/15 02:25:58;;;;;;;5.849999;5.349999;;;;;;;9.35;67.37109;95543.39;;;;
2022/05/15 02:26:58;;;;;;;5.849999;5.349999;;;;;;;9.35;67.37109;95543.39;;;;
2022/05/15 02:27:59;;;;;;;5.849999;5.349999;;;;;;;9.35;67.37109;95543.39;;;;
2022/05/15 02:28:59;;;;;;;5.849999;5.349999;;;;;;;9.35;67.37109;95543.39;;;;
2022/05/15 02:30:00;;;;;;;5.849999;5.349999;;;;;;;9.35;67.37109;95543.39;;;;
2022/05/15 02:31:00;;;;;;;5.849999;5.349999;;;;;;;9.35;67.37109;95543.39;;;;
2022/05/15 02:32:01;;;;;;;6.25;5.15;;;;;;;9.16;67.60156;95540.97;;;;
2022/05/15 02:33:02;;;;;;;6.25;5.15;;;;;;;9.16;67.60156;95540.97;;;;
2022/05/15 02:34:03;;;;;;;6.25;5.15;;;;;;;9.16;67.60156;95540.97;;;;
2022/05/15 02:35:03;;;;;;;6.25;5.15;;;;;;;9.16;67.60156;95540.97;;;;
2022/05/15 02:36:05;;;;;;;6.25;5.15;;;;;;;9.16;67.60156;95540.97;;;;
2022/05/15 02:37:06;;;;;;;6.25;5.15;;;;;;;9.16;67.60156;95540.97;;;;
2022/05/15 02:38:06;;;;;;;6.25;5.15;;;;;;;9.16;67.60156;95540.97;;;;
2022/05/15 02:39:07;;;;;;;6.25;5.15;;;;;;;9.16;67.60156;95540.97;;;;
2022/05/15 02:40:08;;;;;;;6.25;5.15;;;;;;;9.16;67.60156;95540.97;;;;
2022/05/15 02:41:09;;;;;;;6.25;5.15;;;;;;;9.16;67.60156;95540.97;;;;
2022/05/15 02:42:10;;;;;;;6.25;5.15;;;;;;;9.16;67.60156;95540.97;;;;
2022/05/15 02:43:11;;;;;;;7.7;5.4;;;;;;;9.07;67.79297;95540.34;;;;
2022/05/15 02:44:12;;;;;;;7.7;5.4;;;;;;;9.07;67.79297;95540.34;;;;
2022/05/15 02:45:12;;;;;;;7.7;5.4;;;;;;;9.07;67.79297;95540.34;;;;
2022/05/15 02:46:13;;;;;;;7.7;5.4;;;;;;;9.07;67.79297;95540.34;;;;
2022/05/15 02:47:13;;;;;;;7.7;5.4;;;;;;;9.07;67.79297;95540.34;;;;
2022/05/15 02:51:03;;;;;;;7.7;5.4;;;;;;;9.07;67.79297;95540.34;;;;
2022/05/15 02:52:04;;;;;;;7.7;5.4;;;;;;;9.07;67.79297;95540.34;;;;
2022/05/15 02:53:05;;;;;;;6.400001;5.65;;;;;;;8.93;67.95215;95535.21;;;;
2022/05/15 02:54:07;;;;;;;6.400001;5.65;;;;;;;8.93;67.95215;95535.21;;;;
2022/05/15 02:55:07;;;;;;;6.400001;5.65;;;;;;;8.93;67.95215;95535.21;;;;
2022/05/15 02:56:09;;;;;;;6.400001;5.65;;;;;;;8.93;67.95215;95535.21;;;;
2022/05/15 02:57:12;;;;;;;6.400001;5.65;;;;;;;8.93;67.95215;95535.21;;;;
2022/05/15 02:58:13;;;;;;;6.400001;5.65;;;;;;;8.93;67.95215;95535.21;;;;
2022/05/15 02:59:13;;;;;;;6.400001;5.65;;;;;;;8.93;67.95215;95535.21;;;;
2022/05/15 03:00:14;;;;;;;6.400001;5.65;;;;;;;8.93;67.95215;95535.21;;;;
2022/05/15 03:01:17;;;;;;;6.400001;5.65;;;;;;;8.93;67.95215;95535.21;;;;
2022/05/15 03:02:18;;;;;;;6.400001;5.65;;;;;;;8.93;67.95215;95535.21;;;;
2022/05/15 03:03:18;;;;;;;6.400001;5.65;;;;;;;8.93;67.95215;95535.21;;;;
2022/05/15 03:04:18;;;;;;;6.400001;5.450001;;;;;;;8.87;68.12598;95525.42;;;;
2022/05/15 03:05:19;;;;;;;6.400001;5.450001;;;;;;;8.87;68.12598;95525.42;;;;
2022/05/15 03:06:21;;;;;;;6.400001;5.450001;;;;;;;8.87;68.12598;95525.42;;;;
2022/05/15 03:07:21;;;;;;;6.400001;5.450001;;;;;;;8.87;68.12598;95525.42;;;;
2022/05/15 03:08:22;;;;;;;6.400001;5.450001;;;;;;;8.87;68.12598;95525.42;;;;
2022/05/15 03:09:23;;;;;;;6.400001;5.450001;;;;;;;8.87;68.12598;95525.42;;;;
2022/05/15 03:10:24;;;;;;;6.400001;5.450001;;;;;;;8.87;68.12598;95525.42;;;;
2022/05/15 03:11:25;;;;;;;6.400001;5.450001;;;;;;;8.87;68.12598;95525.42;;;;
2022/05/15 03:12:26;;;;;;;6.400001;5.450001;;;;;;;8.87;68.12598;95525.42;;;;
2022/05/15 03:13:27;;;;;;;6.400001;5.450001;;;;;;;8.87;68.12598;95525.42;;;;
2022/05/15 03:14:28;;;;;;;6;5.400001;;;;;;;8.77;68.30273;95529.85;;;;
2022/05/15 03:15:28;;;;;;;6;5.400001;;;;;;;8.77;68.30273;95529.85;;;;
2022/05/15 03:16:29;;;;;;;6;5.400001;;;;;;;8.77;68.30273;95529.85;;;;
2022/05/15 03:17:30;;;;;;;6;5.400001;;;;;;;8.77;68.30273;95529.85;;;;
2022/05/15 03:18:30;;;;;;;6;5.400001;;;;;;;8.77;68.30273;95529.85;;;;
2022/05/15 03:19:31;;;;;;;6;5.400001;;;;;;;8.77;68.30273;95529.85;;;;
2022/05/15 03:20:31;;;;;;;6;5.400001;;;;;;;8.77;68.30273;95529.85;;;;
2022/05/15 03:21:32;;;;;;;6;5.400001;;;;;;;8.77;68.30273;95529.85;;;;
2022/05/15 03:22:32;;;;;;;6;5.400001;;;;;;;8.77;68.30273;95529.85;;;;
2022/05/15 03:23:33;;;;;;;6;5.400001;;;;;;;8.77;68.30273;95529.85;;;;
2022/05/15 03:24:33;;;;;;;6;5.400001;;;;;;;8.77;68.30273;95529.85;;;;
2022/05/15 03:25:35;;;;;;;5.950001;5.349999;;;;;;;8.66;68.59766;95536.88;;;;
2022/05/15 03:26:35;;;;;;;5.950001;5.349999;;;;;;;8.66;68.59766;95536.88;;;;
2022/05/15 03:27:38;;;;;;;5.950001;5.349999;;;;;;;8.66;68.59766;95536.88;;;;
2022/05/15 03:28:38;;;;;;;5.950001;5.349999;;;;;;;8.66;68.59766;95536.88;;;;
2022/05/15 03:29:39;;;;;;;5.950001;5.349999;;;;;;;8.66;68.59766;95536.88;;;;
2022/05/15 03:30:39;;;;;;;5.950001;5.349999;;;;;;;8.66;68.59766;95536.88;;;;
2022/05/15 03:31:42;;;;;;;5.950001;5.349999;;;;;;;8.66;68.59766;95536.88;;;;
2022/05/15 03:32:42;;;;;;;5.950001;5.349999;;;;;;;8.66;68.59766;95536.88;;;;
2022/05/15 03:33:43;;;;;;;5.950001;5.349999;;;;;;;8.66;68.59766;95536.88;;;;
2022/05/15 03:34:43;;;;;;;5.950001;5.349999;;;;;;;8.66;68.59766;95536.88;;;;
2022/05/15 03:35:44;;;;;;;5.950001;5.349999;;;;;;;8.66;68.59766;95536.88;;;;
2022/05/15 03:36:45;;;;;;;7.15;5.7;;;;;;;8.58;68.80957;95540.56;;;;
2022/05/15 03:37:48;;;;;;;7.15;5.7;;;;;;;8.58;68.80957;95540.56;;;;
2022/05/15 03:38:49;;;;;;;7.15;5.7;;;;;;;8.58;68.80957;95540.56;;;;
2022/05/15 03:39:49;;;;;;;7.15;5.7;;;;;;;8.58;68.80957;95540.56;;;;
2022/05/15 03:40:50;;;;;;;7.15;5.7;;;;;;;8.58;68.80957;95540.56;;;;
2022/05/15 03:41:50;;;;;;;7.15;5.7;;;;;;;8.58;68.80957;95540.56;;;;
2022/05/15 03:42:51;;;;;;;7.15;5.7;;;;;;;8.58;68.80957;95540.56;;;;
2022/05/15 03:43:51;;;;;;;7.15;5.7;;;;;;;8.58;68.80957;95540.56;;;;
2022/05/15 03:44:52;;;;;;;7.15;5.7;;;;;;;8.58;68.80957;95540.56;;;;
2022/05/15 03:45:53;;;;;;;7.15;5.7;;;;;;;8.58;68.80957;95540.56;;;;
2022/05/15 03:46:54;;;;;;;7.1;5.65;;;;;;;8.53;68.98438;95540.33;;;;
2022/05/15 03:47:54;;;;;;;7.1;5.65;;;;;;;8.53;68.98438;95540.33;;;;
2022/05/15 03:48:55;;;;;;;7.1;5.65;;;;;;;8.53;68.98438;95540.33;;;;
2022/05/15 03:49:57;;;;;;;7.1;5.65;;;;;;;8.53;68.98438;95540.33;;;;
2022/05/15 03:51:00;;;;;;;7.1;5.65;;;;;;;8.53;68.98438;95540.33;;;;
2022/05/15 03:52:02;;;;;;;7.1;5.65;;;;;;;8.53;68.98438;95540.33;;;;
2022/05/15 03:53:03;;;;;;;7.1;5.65;;;;;;;8.53;68.98438;95540.33;;;;
2022/05/15 03:54:04;;;;;;;7.1;5.65;;;;;;;8.53;68.98438;95540.33;;;;
2022/05/15 03:55:05;;;;;;;7.1;5.65;;;;;;;8.53;68.98438;95540.33;;;;
2022/05/15 03:56:07;;;;;;;7.1;5.65;;;;;;;8.53;68.98438;95540.33;;;;
2022/05/15 03:57:08;;;;;;;6.75;5.65;;;;;;;8.6;69.07031;95543;;;;
2022/05/15 03:58:09;;;;;;;6.75;5.65;;;;;;;8.6;69.07031;95543;;;;
2022/05/15 03:59:10;;;;;;;6.75;5.65;;;;;;;8.6;69.07031;95543;;;;
2022/05/15 04:00:11;;;;;;;6.75;5.65;;;;;;;8.6;69.07031;95543;;;;
2022/05/15 04:01:15;;;;;;;6.75;5.65;;;;;;;8.6;69.07031;95543;;;;
2022/05/15 04:02:15;;;;;;;6.75;5.65;;;;;;;8.6;69.07031;95543;;;;
2022/05/15 04:03:16;;;;;;;6.75;5.65;;;;;;;8.6;69.07031;95543;;;;
2022/05/15 04:04:17;;;;;;;6.75;5.65;;;;;;;8.6;69.07031;95543;;;;
2022/05/15 04:05:18;;;;;;;6.75;5.65;;;;;;;8.6;69.07031;95543;;;;
2022/05/15 04:06:19;;;;;;;6.75;5.65;;;;;;;8.6;69.07031;95543;;;;
2022/05/15 04:07:19;;;;;;;6.75;5.65;;;;;;;8.6;69.07031;95543;;;;
2022/05/15 04:08:20;;;;;;;6.599999;5.900001;;;;;;;8.61;69.11523;95534.49;;;;
2022/05/15 04:09:21;;;;;;;6.599999;5.900001;;;;;;;8.61;69.11523;95534.49;;;;
2022/05/15 04:10:22;;;;;;;6.599999;5.900001;;;;;;;8.61;69.11523;95534.49;;;;
2022/05/15 04:11:24;;;;;;;6.599999;5.900001;;;;;;;8.61;69.11523;95534.49;;;;
2022/05/15 04:12:24;;;;;;;6.599999;5.900001;;;;;;;8.61;69.11523;95534.49;;;;
2022/05/15 04:13:26;;;;;;;6.599999;5.900001;;;;;;;8.61;69.11523;95534.49;;;;
2022/05/15 04:14:27;;;;;;;6.599999;5.900001;;;;;;;8.61;69.11523;95534.49;;;;
2022/05/15 04:15:28;;;;;;;6.599999;5.900001;;;;;;;8.61;69.11523;95534.49;;;;
2022/05/15 04:16:28;;;;;;;6.599999;5.900001;;;;;;;8.61;69.11523;95534.49;;;;
2022/05/15 04:17:29;;;;;;;6.599999;5.900001;;;;;;;8.61;69.11523;95534.49;;;;
2022/05/15 04:18:30;;;;;;;6.050001;5.45;;;;;;;8.65;69.31348;95540.52;;;;
2022/05/15 04:19:30;;;;;;;6.050001;5.45;;;;;;;8.65;69.31348;95540.52;;;;
2022/05/15 04:20:31;;;;;;;6.050001;5.45;;;;;;;8.65;69.31348;95540.52;;;;
2022/05/15 04:21:37;;;;;;;6.050001;5.45;;;;;;;8.65;69.31348;95540.52;;;;
2022/05/15 04:22:38;;;;;;;6.050001;5.45;;;;;;;8.65;69.31348;95540.52;;;;
2022/05/15 04:23:39;;;;;;;6.050001;5.45;;;;;;;8.65;69.31348;95540.52;;;;
2022/05/15 04:24:39;;;;;;;6.050001;5.45;;;;;;;8.65;69.31348;95540.52;;;;
2022/05/15 04:25:40;;;;;;;6.050001;5.45;;;;;;;8.65;69.31348;95540.52;;;;
2022/05/15 04:26:40;;;;;;;6.050001;5.45;;;;;;;8.65;69.31348;95540.52;;;;
2022/05/15 04:27:43;;;;;;;6.050001;5.45;;;;;;;8.65;69.31348;95540.52;;;;
2022/05/15 04:28:44;;;;;;;6.050001;5.45;;;;;;;8.65;69.31348;95540.52;;;;
2022/05/15 04:29:45;;;;;;;6.100001;5.5;;;;;;;8.8;69.36035;95534.61;;;;
2022/05/15 04:30:45;;;;;;;6.100001;5.5;;;;;;;8.8;69.36035;95534.61;;;;
2022/05/15 04:31:46;;;;;;;6.100001;5.5;;;;;;;8.8;69.36035;95534.61;;;;
2022/05/15 04:32:47;;;;;;;6.100001;5.5;;;;;;;8.8;69.36035;95534.61;;;;
2022/05/15 04:33:47;;;;;;;6.100001;5.5;;;;;;;8.8;69.36035;95534.61;;;;
2022/05/15 04:34:47;;;;;;;6.100001;5.5;;;;;;;8.8;69.36035;95534.61;;;;
2022/05/15 04:35:48;;;;;;;6.100001;5.5;;;;;;;8.8;69.36035;95534.61;;;;
2022/05/15 04:36:48;;;;;;;6.100001;5.5;;;;;;;8.8;69.36035;95534.61;;;;
2022/05/15 04:37:50;;;;;;;6.100001;5.5;;;;;;;8.8;69.36035;95534.61;;;;
2022/05/15 04:38:51;;;;;;;6.100001;5.5;;;;;;;8.8;69.36035;95534.61;;;;
2022/05/15 04:39:51;;;;;;;6.45;5.3;;;;;;;8.93;69.45703;95543.91;;;;
2022/05/15 04:40:52;;;;;;;6.45;5.3;;;;;;;8.93;69.45703;95543.91;;;;
2022/05/15 04:41:53;;;;;;;6.45;5.3;;;;;;;8.93;69.45703;95543.91;;;;
2022/05/15 04:42:53;;;;;;;6.45;5.3;;;;;;;8.93;69.45703;95543.91;;;;
2022/05/15 04:43:54;;;;;;;6.45;5.3;;;;;;;8.93;69.45703;95543.91;;;;
2022/05/15 04:44:54;;;;;;;6.45;5.3;;;;;;;8.93;69.45703;95543.91;;;;
2022/05/15 04:45:55;;;;;;;6.45;5.3;;;;;;;8.93;69.45703;95543.91;;;;
2022/05/15 04:46:55;;;;;;;6.45;5.3;;;;;;;8.93;69.45703;95543.91;;;;
2022/05/15 04:47:56;;;;;;;6.45;5.3;;;;;;;8.93;69.45703;95543.91;;;;
2022/05/15 04:48:56;;;;;;;6.45;5.3;;;;;;;8.93;69.45703;95543.91;;;;
2022/05/15 04:49:57;;;;;;;6.45;5.3;;;;;;;8.93;69.45703;95543.91;;;;
2022/05/15 04:50:57;;;;;;;6.900001;5.749999;;;;;;;9.13;69.5957;95548.86;;;;
2022/05/15 04:51:58;;;;;;;6.900001;5.749999;;;;;;;9.13;69.5957;95548.86;;;;
2022/05/15 04:52:59;;;;;;;6.900001;5.749999;;;;;;;9.13;69.5957;95548.86;;;;
2022/05/15 04:53:59;;;;;;;6.900001;5.749999;;;;;;;9.13;69.5957;95548.86;;;;
2022/05/15 04:55:00;;;;;;;6.900001;5.749999;;;;;;;9.13;69.5957;95548.86;;;;
2022/05/15 04:56:01;;;;;;;6.900001;5.749999;;;;;;;9.13;69.5957;95548.86;;;;
2022/05/15 04:57:02;;;;;;;6.900001;5.749999;;;;;;;9.13;69.5957;95548.86;;;;
2022/05/15 04:58:03;;;;;;;6.900001;5.749999;;;;;;;9.13;69.5957;95548.86;;;;
2022/05/15 04:59:04;;;;;;;6.900001;5.749999;;;;;;;9.13;69.5957;95548.86;;;;
2022/05/15 05:00:05;;;;;;;6.900001;5.749999;;;;;;;9.13;69.5957;95548.86;;;;
2022/05/15 05:01:09;;;;;;;6.900001;5.749999;;;;;;;9.13;69.5957;95548.86;;;;
2022/05/15 05:02:10;;;;;;;6.499999;5.699999;;;;;;;9.47;69.52148;95550.94;;;;
2022/05/15 05:03:10;;;;;;;6.499999;5.699999;;;;;;;9.47;69.52148;95550.94;;;;
2022/05/15 05:04:11;;;;;;;6.499999;5.699999;;;;;;;9.47;69.52148;95550.94;;;;
2022/05/15 05:05:12;;;;;;;6.499999;5.699999;;;;;;;9.47;69.52148;95550.94;;;;
2022/05/15 05:06:12;;;;;;;6.499999;5.699999;;;;;;;9.47;69.52148;95550.94;;;;
2022/05/15 05:07:13;;;;;;;6.499999;5.699999;;;;;;;9.47;69.52148;95550.94;;;;
2022/05/15 05:08:13;;;;;;;6.499999;5.699999;;;;;;;9.47;69.52148;95550.94;;;;
2022/05/15 05:09:14;;;;;;;6.499999;5.699999;;;;;;;9.47;69.52148;95550.94;;;;
2022/05/15 05:10:15;;;;;;;6.499999;5.699999;;;;;;;9.47;69.52148;95550.94;;;;
2022/05/15 05:11:16;;;;;;;6.499999;5.699999;;;;;;;9.47;69.52148;95550.94;;;;
2022/05/15 05:12:16;;;;;;;7.999999;5.9;;;;;;;9.87;69.43457;95558.45;;;;
2022/05/15 05:13:17;;;;;;;7.999999;5.9;;;;;;;9.87;69.43457;95558.45;;;;
2022/05/15 05:14:19;;;;;;;7.999999;5.9;;;;;;;9.87;69.43457;95558.45;;;;
2022/05/15 05:15:19;;;;;;;7.999999;5.9;;;;;;;9.87;69.43457;95558.45;;;;
2022/05/15 05:16:21;;;;;;;7.999999;5.9;;;;;;;9.87;69.43457;95558.45;;;;
2022/05/15 05:17:21;;;;;;;7.999999;5.9;;;;;;;9.87;69.43457;95558.45;;;;
2022/05/15 05:18:22;;;;;;;7.999999;5.9;;;;;;;9.87;69.43457;95558.45;;;;
2022/05/15 05:19:22;;;;;;;7.999999;5.9;;;;;;;9.87;69.43457;95558.45;;;;
2022/05/15 05:20:23;;;;;;;7.999999;5.9;;;;;;;9.87;69.43457;95558.45;;;;
2022/05/15 05:21:24;;;;;;;7.999999;5.9;;;;;;;9.87;69.43457;95558.45;;;;
2022/05/15 05:22:25;;;;;;;7.999999;5.9;;;;;;;9.87;69.43457;95558.45;;;;
2022/05/15 05:23:25;;;;;;;7.400001;6.55;;;;;;;10.45;69.43945;95558.62;;;;
2022/05/15 05:24:26;;;;;;;7.400001;6.55;;;;;;;10.45;69.43945;95558.62;;;;
2022/05/15 05:25:26;;;;;;;7.400001;6.55;;;;;;;10.45;69.43945;95558.62;;;;
2022/05/15 05:26:27;;;;;;;7.400001;6.55;;;;;;;10.45;69.43945;95558.62;;;;
2022/05/15 05:27:28;;;;;;;7.400001;6.55;;;;;;;10.45;69.43945;95558.62;;;;
2022/05/15 05:28:28;;;;;;;7.400001;6.55;;;;;;;10.45;69.43945;95558.62;;;;
2022/05/15 05:29:29;;;;;;;7.400001;6.55;;;;;;;10.45;69.43945;95558.62;;;;
2022/05/15 05:30:30;;;;;;;7.400001;6.55;;;;;;;10.45;69.43945;95558.62;;;;
2022/05/15 05:31:32;;;;;;;7.400001;6.55;;;;;;;10.45;69.43945;95558.62;;;;
2022/05/15 05:32:33;;;;;;;7.400001;6.55;;;;;;;10.45;69.43945;95558.62;;;;
2022/05/15 05:33:33;;;;;;;8.75;7.250001;;;;;;;11.1;69.33691;95564.31;;;;
2022/05/15 05:34:34;;;;;;;8.75;7.250001;;;;;;;11.1;69.33691;95564.31;;;;
2022/05/15 05:35:35;;;;;;;8.75;7.250001;;;;;;;11.1;69.33691;95564.31;;;;
2022/05/15 05:36:37;;;;;;;8.75;7.250001;;;;;;;11.1;69.33691;95564.31;;;;
2022/05/15 05:37:37;;;;;;;8.75;7.250001;;;;;;;11.1;69.33691;95564.31;;;;
2022/05/15 05:38:38;;;;;;;8.75;7.250001;;;;;;;11.1;69.33691;95564.31;;;;
2022/05/15 05:39:39;;;;;;;8.75;7.250001;;;;;;;11.1;69.33691;95564.31;;;;
2022/05/15 05:40:39;;;;;;;8.75;7.250001;;;;;;;11.1;69.33691;95564.31;;;;
2022/05/15 05:41:40;;;;;;;8.75;7.250001;;;;;;;11.1;69.33691;95564.31;;;;
2022/05/15 05:42:40;;;;;;;8.75;7.250001;;;;;;;11.1;69.33691;95564.31;;;;